Hlavní strana
METAR-TAF:

METAR-TAF

Letiště :

Blytheville Municipal Airport

Blytheville, Arkansas, Spojené státy americké

zeměpisná šířka: 35-56-20N, zeměpisná délka: 089-49-57W, výška: 78 m

Aktuální stav počasí

Zpráva byla vytvořena před 14 minutami, v 13:53 UTC
Jihozápadní vítr 8 kt
Teplota 4°C
Vlhkost vzduchu 81%
Tlak 1021 hPa
Viditelnost: 16.1 km
Jasno

METAR: KHKA 031353Z AUTO 22008KT 10SM CLR 04/01 A3016 RMK AO2 SLP215 T00390006 $

Čas: 08:07 (14:07 UTC)


TAF: chybějící

Stav a předpovědi počasí z více než 4 000 letišť (zprávy METAR a TAF).

Červené a žluté tečky na mapě představují dostupné meteorologické stanice.

Když kurzor umístíte na tečku, zobrazí se název stanice.

Pak kliknutím zobrazíte stav a předpověď počasí.

Chcete-li změnit mapu, kliknutím na zelené tlačítko se znaménkem +mapu přiblížíte, kliknutím na zelené tlačítko se znaménkem – mapu oddálíte a kliknutím na zelené šipky přejdete na sousední mapy.


METAR-TAF: